createdAt,value
2023-04-07T00:00:50.557Z,1.98
2023-04-07T00:01:53.823Z,1.98
2023-04-07T00:02:57.416Z,1.95
2023-04-07T00:04:01.093Z,1.95
2023-04-07T00:05:04.413Z,2.08
2023-04-07T00:06:07.999Z,2.07
2023-04-07T00:07:11.096Z,1.96
2023-04-07T00:08:14.885Z,2.05
2023-04-07T00:09:18.182Z,2.00
2023-04-07T00:10:21.476Z,2.18
2023-04-07T00:11:24.632Z,2.22
2023-04-07T00:12:36.503Z,2.11
2023-04-07T00:13:39.343Z,1.89
2023-04-07T00:14:42.805Z,1.84
2023-04-07T00:15:45.838Z,1.87
2023-04-07T00:16:49.191Z,1.91
2023-04-07T00:17:52.269Z,1.88
2023-04-07T00:18:55.272Z,1.93
2023-04-07T00:19:58.444Z,1.97
2023-04-07T00:21:01.462Z,2.03
2023-04-07T00:22:04.359Z,2.09
2023-04-07T00:23:08.436Z,2.06
2023-04-07T00:24:14.425Z,2.05
2023-04-07T00:25:19.605Z,2.10
2023-04-07T00:26:22.436Z,2.16
2023-04-07T00:27:25.552Z,2.18
2023-04-07T00:28:29.309Z,2.13
2023-04-07T00:29:32.338Z,2.20
2023-04-07T00:30:35.737Z,2.20
2023-04-07T00:31:38.943Z,2.22
2023-04-07T00:32:41.777Z,2.12
2023-04-07T00:33:44.812Z,2.20
2023-04-07T00:34:47.638Z,2.17
2023-04-07T00:35:50.683Z,2.21
2023-04-07T00:36:53.763Z,2.21
2023-04-07T00:37:57.262Z,2.18
2023-04-07T00:39:00.501Z,1.93
2023-04-07T00:40:04.386Z,1.82
2023-04-07T00:41:09.728Z,1.73
2023-04-07T00:42:12.756Z,1.89
2023-04-07T00:43:16.197Z,2.03
2023-04-07T00:44:19.149Z,2.03
2023-04-07T00:45:22.038Z,1.98
2023-04-07T00:46:24.951Z,1.95
2023-04-07T00:47:28.086Z,1.84
2023-04-07T00:48:31.544Z,1.90
2023-04-07T00:49:37.146Z,2.01
2023-04-07T00:50:40.611Z,2.09
2023-04-07T00:51:43.681Z,2.08
2023-04-07T00:52:47.100Z,1.92
2023-04-07T00:53:50.437Z,1.88
2023-04-07T00:54:55.634Z,1.86
2023-04-07T00:55:58.494Z,1.88
2023-04-07T00:57:02.014Z,2.02
2023-04-07T00:58:07.996Z,2.02
2023-04-07T00:59:11.087Z,1.81
2023-04-07T01:00:14.566Z,1.61
2023-04-07T01:01:27.664Z,1.80
2023-04-07T01:02:38.604Z,1.99
2023-04-07T01:03:53.879Z,2.15
2023-04-07T01:05:18.934Z,2.19
2023-04-07T01:06:27.083Z,2.20
2023-04-07T01:07:39.433Z,2.15
2023-04-07T01:09:03.031Z,2.09
2023-04-07T01:10:10.814Z,1.92
2023-04-07T01:11:20.953Z,1.82
2023-04-07T01:13:01.932Z,1.97
2023-04-07T01:14:06.910Z,1.95
2023-04-07T01:15:12.403Z,1.70
2023-04-07T01:16:37.227Z,1.77
2023-04-07T01:17:46.080Z,1.94
2023-04-07T01:18:54.562Z,1.92
2023-04-07T01:20:03.680Z,2.02
2023-04-07T01:21:15.608Z,1.89
2023-04-07T01:22:25.202Z,2.07
2023-04-07T01:23:56.967Z,2.10
2023-04-07T01:25:21.799Z,1.95
2023-04-07T01:26:33.854Z,1.90
2023-04-07T01:28:10.813Z,1.88
2023-04-07T01:29:37.518Z,2.01
2023-04-07T01:30:44.517Z,2.01
2023-04-07T01:31:50.628Z,2.16
2023-04-07T01:32:56.726Z,2.17
2023-04-07T01:34:03.002Z,2.22
2023-04-07T01:35:10.363Z,2.12
2023-04-07T01:36:13.907Z,2.02
2023-04-07T01:37:17.885Z,2.08
2023-04-07T01:38:21.980Z,2.10
2023-04-07T01:39:27.322Z,2.14
2023-04-07T01:40:33.439Z,2.16
2023-04-07T01:41:37.929Z,2.16
2023-04-07T01:42:43.090Z,2.16
2023-04-07T01:43:48.081Z,2.19
2023-04-07T01:44:52.207Z,2.07
2023-04-07T01:45:56.467Z,2.09
2023-04-07T01:47:01.227Z,2.16
2023-04-07T01:48:07.296Z,2.28
2023-04-07T01:49:13.248Z,2.02
2023-04-07T01:50:17.301Z,1.85
2023-04-07T01:51:22.591Z,1.88
2023-04-07T01:52:29.534Z,2.13
2023-04-07T01:53:34.236Z,2.09
2023-04-07T01:54:37.766Z,2.09
2023-04-07T01:55:40.607Z,2.15
2023-04-07T01:56:44.990Z,2.02
2023-04-07T01:57:47.712Z,2.10
2023-04-07T01:58:50.841Z,2.20
2023-04-07T01:59:54.133Z,2.00
2023-04-07T02:00:57.574Z,1.95
2023-04-07T02:02:00.769Z,1.93
2023-04-07T02:03:12.147Z,2.04
2023-04-07T02:04:48.649Z,2.09
2023-04-07T02:05:56.697Z,1.99
2023-04-07T02:07:09.924Z,1.90
2023-04-07T02:08:14.739Z,1.88
2023-04-07T02:09:20.719Z,1.84
2023-04-07T02:10:27.282Z,1.78
2023-04-07T02:11:33.580Z,1.95
2023-04-07T02:12:39.645Z,1.99
2023-04-07T02:13:44.072Z,2.05
2023-04-07T02:14:47.721Z,1.91
2023-04-07T02:15:51.069Z,1.93
2023-04-07T02:16:55.028Z,1.89
2023-04-07T02:18:01.122Z,1.87
2023-04-07T02:19:05.737Z,1.90
2023-04-07T02:20:11.905Z,1.94
2023-04-07T02:21:19.658Z,2.01
2023-04-07T02:22:22.410Z,1.84
2023-04-07T02:23:25.612Z,1.80
2023-04-07T02:24:28.344Z,1.90
2023-04-07T02:25:33.036Z,1.75
2023-04-07T02:26:36.704Z,1.78
2023-04-07T02:27:39.742Z,1.84
2023-04-07T02:28:48.075Z,1.85
2023-04-07T02:29:51.100Z,1.93
2023-04-07T02:30:53.963Z,1.88
2023-04-07T02:31:56.917Z,1.96
2023-04-07T02:32:59.790Z,2.00
2023-04-07T02:34:02.906Z,1.90
2023-04-07T02:35:06.665Z,1.72
2023-04-07T02:36:09.774Z,1.65
2023-04-07T02:37:12.649Z,1.75
2023-04-07T02:38:15.810Z,1.79
2023-04-07T02:39:18.711Z,1.80
2023-04-07T02:40:22.501Z,1.86
2023-04-07T02:41:26.477Z,1.97
2023-04-07T02:42:29.342Z,1.98
2023-04-07T02:43:32.160Z,2.04
2023-04-07T02:44:35.006Z,2.04
2023-04-07T02:45:38.040Z,1.87
2023-04-07T02:46:42.086Z,1.91
2023-04-07T02:47:44.920Z,1.97
2023-04-07T02:48:47.876Z,2.02
2023-04-07T02:49:51.096Z,2.04
2023-04-07T02:50:54.095Z,2.11
2023-04-07T02:51:56.939Z,1.97
2023-04-07T02:52:59.872Z,2.08
2023-04-07T02:54:02.992Z,1.97
2023-04-07T02:55:06.528Z,1.83
2023-04-07T02:56:09.551Z,1.76
2023-04-07T02:57:14.113Z,1.91
2023-04-07T02:58:17.194Z,1.95
2023-04-07T02:59:20.235Z,2.01
2023-04-07T03:00:23.379Z,2.00
2023-04-07T03:01:26.265Z,1.70
2023-04-07T03:02:29.402Z,1.61
2023-04-07T03:03:32.425Z,1.66
2023-04-07T03:04:35.528Z,1.79
2023-04-07T03:05:38.380Z,1.67
2023-04-07T03:06:41.444Z,1.56
2023-04-07T03:07:44.321Z,1.81
2023-04-07T03:08:47.483Z,1.88
2023-04-07T03:09:50.394Z,1.95
2023-04-07T03:10:53.484Z,1.91
2023-04-07T03:11:56.850Z,2.01
2023-04-07T03:12:59.955Z,2.04
2023-04-07T03:14:02.673Z,1.90
2023-04-07T03:15:06.237Z,1.82
2023-04-07T03:16:09.189Z,1.76
2023-04-07T03:17:12.668Z,1.67
2023-04-07T03:18:15.961Z,1.71
2023-04-07T03:19:18.972Z,1.72
2023-04-07T03:20:21.905Z,1.61
2023-04-07T03:21:24.846Z,1.70
2023-04-07T03:22:27.854Z,1.86
2023-04-07T03:23:31.027Z,1.70
2023-04-07T03:24:33.964Z,1.61
2023-04-07T03:25:36.874Z,1.57
2023-04-07T03:26:40.225Z,1.58
2023-04-07T03:27:43.270Z,1.70
2023-04-07T03:28:48.614Z,1.61
2023-04-07T03:29:51.532Z,1.60
2023-04-07T03:30:54.464Z,1.62
2023-04-07T03:31:57.926Z,1.65
2023-04-07T03:33:00.748Z,1.73
2023-04-07T03:34:04.800Z,1.85
2023-04-07T03:35:08.040Z,1.85
2023-04-07T03:36:11.295Z,1.71
2023-04-07T03:37:14.255Z,1.68
2023-04-07T03:38:17.656Z,1.59
2023-04-07T03:39:20.541Z,1.64
2023-04-07T03:40:23.693Z,1.65
2023-04-07T03:41:26.609Z,1.65
2023-04-07T03:42:30.155Z,1.58
2023-04-07T03:43:33.179Z,1.59
2023-04-07T03:44:36.098Z,1.80
2023-04-07T03:45:39.190Z,1.66
2023-04-07T03:46:42.043Z,1.60
2023-04-07T03:47:45.156Z,1.61
2023-04-07T03:48:49.676Z,1.78
2023-04-07T03:49:53.328Z,1.80
2023-04-07T03:50:56.189Z,1.81
2023-04-07T03:51:59.098Z,1.92
2023-04-07T03:53:02.254Z,1.92
2023-04-07T03:54:05.096Z,1.95
2023-04-07T03:55:08.564Z,2.05
2023-04-07T03:56:11.769Z,2.08
2023-04-07T03:57:14.860Z,2.00
2023-04-07T03:58:19.138Z,1.80
2023-04-07T03:59:21.896Z,1.65
2023-04-07T04:00:24.921Z,1.72
2023-04-07T04:01:27.725Z,1.91
2023-04-07T04:02:30.699Z,1.88
2023-04-07T04:03:33.672Z,1.86
2023-04-07T04:04:36.685Z,1.82
2023-04-07T04:05:40.736Z,1.75
2023-04-07T04:06:43.625Z,1.96
2023-04-07T04:07:46.617Z,1.97
2023-04-07T04:08:50.652Z,2.02
2023-04-07T04:09:53.661Z,2.12
2023-04-07T04:10:57.519Z,2.21
2023-04-07T04:12:00.468Z,2.17
2023-04-07T04:13:06.929Z,2.18
2023-04-07T04:14:09.927Z,2.12
2023-04-07T04:15:12.734Z,2.12
2023-04-07T04:16:15.806Z,2.20
2023-04-07T04:17:18.731Z,2.21
2023-04-07T04:18:22.788Z,2.13
2023-04-07T04:19:26.466Z,2.23
2023-04-07T04:20:29.407Z,2.27
2023-04-07T04:21:32.306Z,2.27
2023-04-07T04:22:35.705Z,2.21
2023-04-07T04:23:38.779Z,2.27
2023-04-07T04:24:42.239Z,2.36
2023-04-07T04:25:45.022Z,2.18
2023-04-07T04:26:48.180Z,2.00
2023-04-07T04:27:51.113Z,1.99
2023-04-07T04:28:54.163Z,1.89
2023-04-07T04:29:57.282Z,1.97
2023-04-07T04:31:00.340Z,1.96
2023-04-07T04:32:03.235Z,2.17
2023-04-07T04:33:06.165Z,2.18
2023-04-07T04:34:09.090Z,2.10
2023-04-07T04:35:12.014Z,2.04
2023-04-07T04:36:14.972Z,1.95
2023-04-07T04:37:18.154Z,1.85
2023-04-07T04:38:22.169Z,1.85
2023-04-07T04:39:25.074Z,1.91
2023-04-07T04:40:28.331Z,1.94
2023-04-07T04:41:31.261Z,2.00
2023-04-07T04:42:34.673Z,1.88
2023-04-07T04:43:37.504Z,1.88
2023-04-07T04:44:40.404Z,1.95
2023-04-07T04:45:43.296Z,2.11
2023-04-07T04:46:46.103Z,2.02
2023-04-07T04:47:49.254Z,1.97
2023-04-07T04:48:53.072Z,2.12
2023-04-07T04:49:56.412Z,2.04
2023-04-07T04:50:59.511Z,1.91
2023-04-07T04:52:02.549Z,1.93
2023-04-07T04:53:05.453Z,2.10
2023-04-07T04:54:08.861Z,2.08
2023-04-07T04:55:14.013Z,2.04
2023-04-07T04:56:17.440Z,2.26
2023-04-07T04:57:20.473Z,2.37
2023-04-07T04:58:23.542Z,2.28
2023-04-07T04:59:27.328Z,2.31
2023-04-07T05:00:30.370Z,2.18
2023-04-07T05:01:33.566Z,2.20
2023-04-07T05:02:37.452Z,2.30
2023-04-07T05:03:41.023Z,2.18
2023-04-07T05:04:44.114Z,2.08
2023-04-07T05:05:48.966Z,2.08
2023-04-07T05:06:51.908Z,2.15
2023-04-07T05:07:54.792Z,2.16
2023-04-07T05:08:57.638Z,2.19
2023-04-07T05:10:01.673Z,2.10
2023-04-07T05:11:04.788Z,2.05
2023-04-07T05:12:08.299Z,2.03
2023-04-07T05:13:11.492Z,2.04
2023-04-07T05:14:14.366Z,2.04
2023-04-07T05:15:17.334Z,1.97
2023-04-07T05:16:20.568Z,1.99
2023-04-07T05:17:23.486Z,2.01
2023-04-07T05:18:26.401Z,2.00
2023-04-07T05:19:30.015Z,2.10
2023-04-07T05:20:33.436Z,2.22
2023-04-07T05:21:36.663Z,2.29
2023-04-07T05:22:39.704Z,2.36
2023-04-07T05:23:42.565Z,2.33
2023-04-07T05:24:45.520Z,2.15
2023-04-07T05:25:48.654Z,2.13
2023-04-07T05:26:51.504Z,2.19
2023-04-07T05:27:54.428Z,2.24
2023-04-07T05:28:57.384Z,2.19
2023-04-07T05:30:00.682Z,2.24
2023-04-07T05:31:05.087Z,2.21
2023-04-07T05:32:09.553Z,2.25
2023-04-07T05:33:12.884Z,2.30
2023-04-07T05:34:15.818Z,2.40
2023-04-07T05:35:18.898Z,2.34
2023-04-07T05:36:22.037Z,2.34
2023-04-07T05:37:25.137Z,2.53
2023-04-07T05:38:28.325Z,2.64
2023-04-07T05:39:31.612Z,2.70
2023-04-07T05:40:36.277Z,2.67
2023-04-07T05:41:40.742Z,2.64
2023-04-07T05:42:43.753Z,2.67
2023-04-07T05:43:46.773Z,2.65
2023-04-07T05:44:49.573Z,2.59
2023-04-07T05:45:52.697Z,2.71
2023-04-07T05:46:55.577Z,2.67
2023-04-07T05:47:58.489Z,2.69
2023-04-07T05:49:18.404Z,2.84
2023-04-07T05:50:22.353Z,2.88
2023-04-07T05:51:25.137Z,2.92
2023-04-07T05:52:28.150Z,2.85
2023-04-07T05:53:31.181Z,2.81
2023-04-07T05:54:34.044Z,2.76
2023-04-07T05:55:37.120Z,2.75
2023-04-07T05:56:40.023Z,2.78
2023-04-07T05:57:43.012Z,2.86
2023-04-07T05:58:48.181Z,3.00
2023-04-07T05:59:50.900Z,3.03
2023-04-07T06:00:54.242Z,2.90
2023-04-07T06:01:57.496Z,3.04
2023-04-07T06:03:02.058Z,3.04
2023-04-07T06:04:05.186Z,2.95
2023-04-07T06:05:08.213Z,2.88
2023-04-07T06:06:11.218Z,2.88
2023-04-07T06:07:14.106Z,2.92
2023-04-07T06:08:17.092Z,2.82
2023-04-07T06:09:19.999Z,2.89
2023-04-07T06:10:23.402Z,2.99
2023-04-07T06:11:27.519Z,2.99
2023-04-07T06:12:30.533Z,3.02
2023-04-07T06:13:33.335Z,2.96
2023-04-07T06:14:37.169Z,2.96
2023-04-07T06:15:40.046Z,3.11
2023-04-07T06:16:43.354Z,3.00
2023-04-07T06:17:46.363Z,3.07
2023-04-07T06:18:50.677Z,3.05
2023-04-07T06:19:56.810Z,3.17
2023-04-07T06:20:59.916Z,3.29
2023-04-07T06:22:02.879Z,3.17
2023-04-07T06:23:05.643Z,3.17
2023-04-07T06:24:08.707Z,3.19
2023-04-07T06:25:11.597Z,3.25
2023-04-07T06:26:14.764Z,3.27
2023-04-07T06:27:18.676Z,3.27
2023-04-07T06:28:21.932Z,3.43
2023-04-07T06:29:25.038Z,3.58
2023-04-07T06:30:28.074Z,3.55
2023-04-07T06:31:30.988Z,3.40
2023-04-07T06:32:33.902Z,3.44
2023-04-07T06:33:36.975Z,3.52
2023-04-07T06:34:39.849Z,3.61
2023-04-07T06:35:42.851Z,3.69
2023-04-07T06:36:46.678Z,3.66
2023-04-07T06:37:49.744Z,3.68
2023-04-07T06:38:53.842Z,3.63
2023-04-07T06:39:56.950Z,3.53
2023-04-07T06:40:59.977Z,3.68
2023-04-07T06:42:02.755Z,3.87
2023-04-07T06:43:06.443Z,3.83
2023-04-07T06:44:12.296Z,3.82
2023-04-07T06:45:15.272Z,3.92
2023-04-07T06:46:19.031Z,3.88
2023-04-07T06:47:22.245Z,3.90
2023-04-07T06:48:25.167Z,3.95
2023-04-07T06:49:28.141Z,4.05
2023-04-07T06:50:31.115Z,3.93
2023-04-07T06:51:33.941Z,3.68
2023-04-07T06:52:36.904Z,3.68
2023-04-07T06:53:39.657Z,3.65
2023-04-07T06:54:45.372Z,3.72
2023-04-07T06:55:48.158Z,3.86
2023-04-07T06:56:53.464Z,3.89
2023-04-07T06:57:57.483Z,3.90
2023-04-07T06:59:00.786Z,3.77
2023-04-07T07:00:04.235Z,3.89
2023-04-07T07:01:07.356Z,4.03
2023-04-07T07:02:10.530Z,3.99
2023-04-07T07:03:13.912Z,4.10
2023-04-07T07:04:17.070Z,4.04
2023-04-07T07:05:20.427Z,3.99
2023-04-07T07:06:23.339Z,3.99
2023-04-07T07:07:26.228Z,4.21
2023-04-07T07:08:33.791Z,4.03
2023-04-07T07:09:36.671Z,4.00
2023-04-07T07:10:39.640Z,3.96
2023-04-07T07:11:42.434Z,4.02
2023-04-07T07:12:45.599Z,4.07
2023-04-07T07:13:48.891Z,4.18
2023-04-07T07:14:51.891Z,4.09
2023-04-07T07:15:54.878Z,3.86
2023-04-07T07:16:57.787Z,3.88
2023-04-07T07:18:01.030Z,3.90
2023-04-07T07:19:03.949Z,4.00
2023-04-07T07:20:07.342Z,3.88
2023-04-07T07:21:10.578Z,3.86
2023-04-07T07:22:13.664Z,3.91
2023-04-07T07:23:16.458Z,3.99
2023-04-07T07:24:19.457Z,3.96
2023-04-07T07:25:22.470Z,3.80
2023-04-07T07:26:26.478Z,3.88
2023-04-07T07:27:29.756Z,3.78
2023-04-07T07:28:34.318Z,3.64
2023-04-07T07:29:37.367Z,3.78
2023-04-07T07:30:41.746Z,3.91
2023-04-07T07:31:44.681Z,3.80
2023-04-07T07:32:47.643Z,3.85
2023-04-07T07:33:52.133Z,3.76
2023-04-07T07:34:55.291Z,3.84
2023-04-07T07:35:58.106Z,3.73
2023-04-07T07:37:01.001Z,3.79
2023-04-07T07:38:04.272Z,3.90
2023-04-07T07:39:07.385Z,3.69
2023-04-07T07:40:11.128Z,3.78
2023-04-07T07:41:14.212Z,3.87
2023-04-07T07:42:17.351Z,3.81
2023-04-07T07:43:20.137Z,3.97
2023-04-07T07:44:23.924Z,3.86
2023-04-07T07:45:27.119Z,4.06
2023-04-07T07:46:29.919Z,3.96
2023-04-07T07:47:33.048Z,3.99
2023-04-07T07:48:39.815Z,3.86
2023-04-07T07:49:43.156Z,3.76
2023-04-07T07:50:47.342Z,3.84
2023-04-07T07:51:50.194Z,4.08
2023-04-07T07:52:53.489Z,4.19
2023-04-07T07:53:56.640Z,4.24
2023-04-07T07:54:59.437Z,4.33
2023-04-07T07:56:02.266Z,4.22
2023-04-07T07:57:06.369Z,4.00
2023-04-07T07:58:09.312Z,4.04
2023-04-07T07:59:12.357Z,3.87
2023-04-07T08:00:15.834Z,3.93
2023-04-07T08:01:18.601Z,4.04
2023-04-07T08:02:21.876Z,4.22
2023-04-07T08:03:25.111Z,4.28
2023-04-07T08:04:28.188Z,4.45
2023-04-07T08:05:31.353Z,4.49
2023-04-07T08:06:34.244Z,4.78
2023-04-07T08:07:37.946Z,4.75
2023-04-07T08:08:40.987Z,4.67
2023-04-07T08:09:43.910Z,4.40
2023-04-07T08:10:46.846Z,4.30
2023-04-07T08:11:50.312Z,4.67
2023-04-07T08:12:53.235Z,4.99
2023-04-07T08:13:56.129Z,5.48
2023-04-07T08:14:59.009Z,5.36
2023-04-07T08:16:02.330Z,5.39
2023-04-07T08:17:05.654Z,5.37
2023-04-07T08:18:09.493Z,5.27
2023-04-07T08:19:13.787Z,5.05
2023-04-07T08:20:16.958Z,4.95
2023-04-07T08:21:21.243Z,4.96
2023-04-07T08:22:24.093Z,4.89
2023-04-07T08:23:27.290Z,4.74
2023-04-07T08:24:30.251Z,4.90
2023-04-07T08:25:33.094Z,4.63
2023-04-07T08:26:36.323Z,4.46
2023-04-07T08:27:39.585Z,4.49
2023-04-07T08:28:43.114Z,4.38
2023-04-07T08:29:46.195Z,4.44
2023-04-07T08:30:49.472Z,4.61
2023-04-07T08:31:52.285Z,4.62
2023-04-07T08:32:55.174Z,4.63
2023-04-07T08:33:59.112Z,4.70
2023-04-07T08:35:02.172Z,4.77
2023-04-07T08:36:05.836Z,4.88
2023-04-07T08:37:09.776Z,4.87
2023-04-07T08:38:13.002Z,4.49
2023-04-07T08:39:16.663Z,4.21
2023-04-07T08:40:19.442Z,4.21
2023-04-07T08:41:31.221Z,4.28
2023-04-07T08:42:35.455Z,4.47
2023-04-07T08:43:39.403Z,4.49
2023-04-07T08:44:42.778Z,4.74
2023-04-07T08:45:47.535Z,4.44
2023-04-07T08:46:53.967Z,4.60
2023-04-07T08:47:59.680Z,4.62
2023-04-07T08:49:04.965Z,4.45
2023-04-07T08:50:12.279Z,4.66
2023-04-07T08:51:18.483Z,4.70
2023-04-07T08:52:26.847Z,4.46
2023-04-07T08:53:43.499Z,4.87
2023-04-07T08:54:50.359Z,4.76
2023-04-07T08:55:53.631Z,5.08
2023-04-07T08:56:57.137Z,4.97
2023-04-07T08:58:01.970Z,5.08
2023-04-07T08:59:08.031Z,5.02
2023-04-07T09:00:11.922Z,4.70
2023-04-07T09:01:19.198Z,4.51
2023-04-07T09:02:23.746Z,4.34
2023-04-07T09:03:27.323Z,4.37
2023-04-07T09:04:30.500Z,4.44
2023-04-07T09:05:34.495Z,4.47
2023-04-07T09:06:38.302Z,4.39
2023-04-07T09:07:41.253Z,4.22
2023-04-07T09:08:44.593Z,4.33
2023-04-07T09:09:48.131Z,4.57
2023-04-07T09:10:51.446Z,4.50
2023-04-07T09:11:54.484Z,4.25
2023-04-07T09:12:59.800Z,4.22
2023-04-07T09:14:03.137Z,4.24
2023-04-07T09:15:08.004Z,4.30
2023-04-07T09:16:11.389Z,4.31
2023-04-07T09:17:14.476Z,4.24
2023-04-07T09:18:20.906Z,4.29
2023-04-07T09:19:27.810Z,4.39
2023-04-07T09:20:59.265Z,4.36
2023-04-07T09:22:02.334Z,4.22
2023-04-07T09:23:05.510Z,4.19
2023-04-07T09:24:35.007Z,3.99
2023-04-07T09:25:38.021Z,4.17
2023-04-07T09:26:41.135Z,4.27
2023-04-07T09:28:04.386Z,4.30
2023-04-07T09:29:08.357Z,4.08
2023-04-07T09:30:13.801Z,4.31
2023-04-07T09:31:17.526Z,4.20
2023-04-07T09:32:41.699Z,4.01
2023-04-07T09:33:44.963Z,4.19
2023-04-07T09:34:47.886Z,4.26
2023-04-07T09:35:53.959Z,4.22
2023-04-07T09:36:58.046Z,4.14
2023-04-07T09:38:08.864Z,4.22
2023-04-07T09:39:11.758Z,4.16
2023-04-07T09:40:27.310Z,4.09
2023-04-07T09:41:30.475Z,4.36
2023-04-07T09:42:34.839Z,4.37
2023-04-07T09:43:43.023Z,4.24
2023-04-07T09:44:46.019Z,4.41
2023-04-07T09:45:50.017Z,4.40
2023-04-07T09:46:58.199Z,4.36
2023-04-07T09:48:06.870Z,4.41
2023-04-07T09:49:09.968Z,4.33
2023-04-07T09:50:13.206Z,4.26
2023-04-07T09:51:18.553Z,4.18
2023-04-07T09:52:47.450Z,4.33
2023-04-07T09:53:51.959Z,4.64
2023-04-07T09:54:57.063Z,4.67
2023-04-07T09:56:02.937Z,4.58
2023-04-07T09:57:11.159Z,4.54
2023-04-07T09:58:17.090Z,4.49
2023-04-07T09:59:20.525Z,4.59
2023-04-07T10:00:24.312Z,4.46
2023-04-07T10:01:27.351Z,4.18
2023-04-07T10:02:30.429Z,4.29
2023-04-07T10:03:34.210Z,4.20
2023-04-07T10:04:37.694Z,4.29
2023-04-07T10:05:41.492Z,4.42
2023-04-07T10:06:44.475Z,4.60
2023-04-07T10:07:48.390Z,4.64
2023-04-07T10:08:52.772Z,4.53
2023-04-07T10:09:58.010Z,4.38
2023-04-07T10:11:05.005Z,4.38
2023-04-07T10:12:08.010Z,4.58
2023-04-07T10:13:12.134Z,4.84
2023-04-07T10:14:16.548Z,4.51
2023-04-07T10:15:19.429Z,4.59
2023-04-07T10:16:23.765Z,4.69
2023-04-07T10:17:28.849Z,4.70
2023-04-07T10:18:35.828Z,4.85
2023-04-07T10:19:39.453Z,4.78
2023-04-07T10:20:42.674Z,5.13
2023-04-07T10:21:46.677Z,5.09
2023-04-07T10:22:54.089Z,5.19
2023-04-07T10:24:06.123Z,5.18
2023-04-07T10:25:16.023Z,5.05
2023-04-07T10:26:24.048Z,5.09
2023-04-07T10:27:37.636Z,5.17
2023-04-07T10:28:43.887Z,5.00
2023-04-07T10:29:50.463Z,4.96
2023-04-07T10:30:54.346Z,5.09
2023-04-07T10:31:59.751Z,5.22
2023-04-07T10:33:02.809Z,5.10
2023-04-07T10:34:06.108Z,5.19
2023-04-07T10:35:09.180Z,5.34
2023-04-07T10:36:12.674Z,5.39
2023-04-07T10:37:22.435Z,5.56
2023-04-07T10:38:26.637Z,5.52
2023-04-07T10:39:29.516Z,5.52
2023-04-07T10:40:32.751Z,5.48
2023-04-07T10:41:37.752Z,5.66
2023-04-07T10:42:41.101Z,5.49
2023-04-07T10:43:45.369Z,5.37
2023-04-07T10:44:49.982Z,5.54
2023-04-07T10:45:56.230Z,5.57
2023-04-07T10:47:01.897Z,5.46
2023-04-07T10:48:04.858Z,5.47
2023-04-07T10:49:10.807Z,5.55
2023-04-07T10:50:23.950Z,5.56
2023-04-07T10:51:27.518Z,5.77
2023-04-07T10:52:30.751Z,5.93
2023-04-07T10:53:37.250Z,5.88
2023-04-07T10:54:41.075Z,5.83
2023-04-07T10:55:45.317Z,5.82
2023-04-07T10:57:03.105Z,5.97
2023-04-07T10:58:26.375Z,5.76
2023-04-07T10:59:33.419Z,5.52
2023-04-07T11:00:36.251Z,5.58
2023-04-07T11:01:39.274Z,5.67
2023-04-07T11:02:42.993Z,5.67
2023-04-07T11:03:57.938Z,5.94
2023-04-07T11:05:01.599Z,5.76
2023-04-07T11:06:04.905Z,5.86
2023-04-07T11:07:09.103Z,5.97
2023-04-07T11:08:12.208Z,5.61
2023-04-07T11:09:21.382Z,5.59
2023-04-07T11:10:24.376Z,5.31
2023-04-07T11:11:41.920Z,5.31
2023-04-07T11:12:45.742Z,5.19
2023-04-07T11:13:51.243Z,5.21
2023-04-07T11:14:54.372Z,5.09
2023-04-07T11:15:57.706Z,5.43
2023-04-07T11:17:05.840Z,5.36
2023-04-07T11:18:09.332Z,5.42
2023-04-07T11:19:12.335Z,5.55
2023-04-07T11:20:15.111Z,5.51
2023-04-07T11:21:19.937Z,5.33
2023-04-07T11:22:29.848Z,5.30
2023-04-07T11:23:41.905Z,5.46
2023-04-07T11:24:46.889Z,5.53
2023-04-07T11:25:52.610Z,5.42
2023-04-07T11:26:55.615Z,5.37
2023-04-07T11:27:58.515Z,5.48
2023-04-07T11:29:02.033Z,5.53
2023-04-07T11:30:10.306Z,5.38
2023-04-07T11:31:31.882Z,5.26
2023-04-07T11:32:34.884Z,5.27
2023-04-07T11:33:39.337Z,5.41
2023-04-07T11:34:43.265Z,5.32
2023-04-07T11:35:51.437Z,5.39
2023-04-07T11:36:54.658Z,5.49
2023-04-07T11:38:02.732Z,5.42
2023-04-07T11:39:05.822Z,5.34
2023-04-07T11:40:09.544Z,5.51
2023-04-07T11:41:17.753Z,5.48
2023-04-07T11:42:37.577Z,5.43
2023-04-07T11:43:43.591Z,5.29
2023-04-07T11:44:46.763Z,5.08
2023-04-07T11:46:08.163Z,5.29
2023-04-07T11:47:11.171Z,5.29
2023-04-07T11:48:27.566Z,5.24
2023-04-07T11:49:32.002Z,5.40
2023-04-07T11:50:42.899Z,5.41
2023-04-07T11:51:46.318Z,5.39
2023-04-07T11:52:49.319Z,5.38
2023-04-07T11:53:57.210Z,5.29
2023-04-07T11:55:00.725Z,5.13
2023-04-07T11:56:10.928Z,5.12
2023-04-07T11:57:14.547Z,5.21
2023-04-07T11:58:18.255Z,5.25
2023-04-07T11:59:25.660Z,5.15
2023-04-07T12:00:32.360Z,5.06
2023-04-07T12:01:45.373Z,5.29
2023-04-07T12:02:48.513Z,5.35
2023-04-07T12:03:59.519Z,5.43
2023-04-07T12:05:02.681Z,5.45
2023-04-07T12:06:06.664Z,5.48
2023-04-07T12:07:11.777Z,5.42
2023-04-07T12:08:18.997Z,5.30
2023-04-07T12:09:36.181Z,5.21
2023-04-07T12:10:40.764Z,5.37
2023-04-07T12:11:50.508Z,5.26
2023-04-07T12:12:53.692Z,5.39
2023-04-07T12:13:57.366Z,5.59
2023-04-07T12:15:00.189Z,5.66
2023-04-07T12:16:03.186Z,5.67
2023-04-07T12:17:07.842Z,5.66
2023-04-07T12:18:16.562Z,5.72
2023-04-07T12:19:30.938Z,5.69
2023-04-07T12:20:35.409Z,5.79
2023-04-07T12:21:40.177Z,5.74
2023-04-07T12:22:43.061Z,5.58
2023-04-07T12:23:47.774Z,5.72
2023-04-07T12:24:50.767Z,5.52
2023-04-07T12:25:53.565Z,5.71
2023-04-07T12:26:57.788Z,5.50
2023-04-07T12:28:00.673Z,5.64
2023-04-07T12:29:07.176Z,5.72
2023-04-07T12:30:10.953Z,5.66
2023-04-07T12:31:14.876Z,5.69
2023-04-07T12:32:17.729Z,5.55
2023-04-07T12:33:20.804Z,5.72
2023-04-07T12:34:23.639Z,5.74
2023-04-07T12:35:27.116Z,5.63
2023-04-07T12:36:30.120Z,5.55
2023-04-07T12:37:33.283Z,5.55
2023-04-07T12:38:36.506Z,5.83
2023-04-07T12:39:39.912Z,5.54
2023-04-07T12:40:43.529Z,5.66
2023-04-07T12:41:47.897Z,5.41
2023-04-07T12:42:50.750Z,5.38
2023-04-07T12:43:53.805Z,5.38
2023-04-07T12:44:57.092Z,5.45
2023-04-07T12:45:59.933Z,5.70
2023-04-07T12:47:02.740Z,5.50
2023-04-07T12:48:06.405Z,5.45
2023-04-07T12:49:09.598Z,5.54
2023-04-07T12:50:12.645Z,5.72
2023-04-07T12:51:16.788Z,5.59
2023-04-07T12:52:19.835Z,5.55
2023-04-07T12:53:23.135Z,5.53
2023-04-07T12:54:26.101Z,5.76
2023-04-07T12:55:29.466Z,5.91
2023-04-07T12:56:32.771Z,6.00
2023-04-07T12:57:35.562Z,5.59
2023-04-07T12:58:38.686Z,5.38
2023-04-07T12:59:41.552Z,5.52
2023-04-07T13:00:44.613Z,5.49
2023-04-07T13:01:50.257Z,5.63
2023-04-07T13:02:54.563Z,5.58
2023-04-07T13:03:57.769Z,5.83
2023-04-07T13:05:00.656Z,5.80
2023-04-07T13:06:04.846Z,5.89
2023-04-07T13:07:08.616Z,6.02
2023-04-07T13:08:13.459Z,5.90
2023-04-07T13:09:18.663Z,5.82
2023-04-07T13:10:21.665Z,5.93
2023-04-07T13:11:24.466Z,5.99
2023-04-07T13:12:27.544Z,5.88
2023-04-07T13:13:31.597Z,5.90
2023-04-07T13:14:34.514Z,5.84
2023-04-07T13:15:37.645Z,5.92
2023-04-07T13:16:41.013Z,5.91
2023-04-07T13:17:44.557Z,5.94
2023-04-07T13:18:47.544Z,6.02
2023-04-07T13:19:50.735Z,5.96
2023-04-07T13:21:10.729Z,6.00
2023-04-07T13:22:21.889Z,5.81
2023-04-07T13:23:26.468Z,5.85
2023-04-07T13:24:29.490Z,5.79
2023-04-07T13:25:32.289Z,5.74
2023-04-07T13:26:35.270Z,5.81
2023-04-07T13:27:38.187Z,5.72
2023-04-07T13:28:41.676Z,5.77
2023-04-07T13:29:44.820Z,5.83
2023-04-07T13:30:48.076Z,5.88
2023-04-07T13:31:51.439Z,5.89
2023-04-07T13:32:54.553Z,6.06
2023-04-07T13:33:57.442Z,6.14
2023-04-07T13:35:02.389Z,5.94
2023-04-07T13:36:05.246Z,5.92
2023-04-07T13:37:08.179Z,5.84
2023-04-07T13:38:11.420Z,5.75
2023-04-07T13:39:14.486Z,5.83
2023-04-07T13:40:17.685Z,5.82
2023-04-07T13:41:21.768Z,5.75
2023-04-07T13:42:24.829Z,5.77
2023-04-07T13:43:27.910Z,5.86
2023-04-07T13:44:30.875Z,5.82
2023-04-07T13:45:34.037Z,5.87
2023-04-07T13:46:37.033Z,5.82
2023-04-07T13:47:40.206Z,5.81
2023-04-07T13:48:43.667Z,5.81
2023-04-07T13:49:50.090Z,5.79
2023-04-07T13:50:52.997Z,5.82
2023-04-07T13:51:56.194Z,5.78
2023-04-07T13:52:59.073Z,5.83
2023-04-07T13:54:02.489Z,5.79
2023-04-07T13:55:06.307Z,5.70
2023-04-07T13:56:10.578Z,5.73
2023-04-07T13:57:21.170Z,5.68
2023-04-07T13:58:24.789Z,5.83
2023-04-07T13:59:28.218Z,5.90
2023-04-07T14:00:31.192Z,5.91
2023-04-07T14:01:35.795Z,5.72
2023-04-07T14:02:39.009Z,5.60
2023-04-07T14:03:43.185Z,5.68
2023-04-07T14:04:46.398Z,5.76
2023-04-07T14:05:49.359Z,5.72
2023-04-07T14:06:52.228Z,5.65
2023-04-07T14:07:55.095Z,5.48
2023-04-07T14:08:58.562Z,5.51
2023-04-07T14:10:01.413Z,5.48
2023-04-07T14:11:04.303Z,5.62
2023-04-07T14:12:07.239Z,5.56
2023-04-07T14:13:10.109Z,5.43
2023-04-07T14:14:13.020Z,5.36
2023-04-07T14:15:18.125Z,5.31
2023-04-07T14:16:21.425Z,5.43
2023-04-07T14:17:24.391Z,5.59
2023-04-07T14:18:28.273Z,5.77
2023-04-07T14:19:32.212Z,5.65
2023-04-07T14:20:35.284Z,5.56
2023-04-07T14:21:38.145Z,5.42